Time;durP1;ratioP1;P1;durP2;ratioP2;P2;SDS_P1;SDS_P2;PMS_P1;PMS_P2;Temp;Humidity;BMP_temperature;BMP_pressure;BME280_temperature;BME280_humidity;BME280_pressure;Samples;Min_cycle;Max_cycle;Signal;HPM_P1;HPM_P2
2023/07/03 00:00:39;;;;;;;21.92;15.27;;;;;;;23.37;100.00;26931.75;6213723;23;20158;-63
2023/07/03 00:03:06;;;;;;;15.45;11.27;;;;;;;23.32;100.00;30550.56;6214157;23;20561;-64
2023/07/03 00:05:34;;;;;;;12.65;11.55;;;;;;;23.15;100.00;30122.50;6213710;23;20182;-64
2023/07/03 00:08:01;;;;;;;12.30;11.32;;;;;;;23.19;100.00;30245.19;6213841;23;20172;-63
2023/07/03 00:10:29;;;;;;;11.02;10.30;;;;;;;23.21;100.00;31082.13;6214054;23;20157;-64
2023/07/03 00:12:56;;;;;;;13.40;12.43;;;;;;;23.18;100.00;32245.09;6214318;23;20162;-64
2023/07/03 00:15:24;;;;;;;13.07;11.95;;;;;;;23.03;100.00;32676.47;6213696;23;20161;-64
2023/07/03 00:17:51;;;;;;;11.52;10.77;;;;;;;22.98;100.00;31205.50;6213615;23;20162;-64
2023/07/03 00:20:18;;;;;;;11.65;10.88;;;;;;;23.07;100.00;30472.53;6214065;23;20161;-64
2023/07/03 00:22:46;;;;;;;10.98;10.20;;;;;;;23.02;100.00;31793.59;6213486;23;20169;-63
2023/07/03 00:25:13;;;;;;;10.85;9.93;;;;;;;23.07;100.00;31549.91;6213932;23;20192;-64
2023/07/03 00:27:40;;;;;;;10.70;10.10;;;;;;;23.13;100.00;30509.53;6214060;23;20158;-64
2023/07/03 00:30:08;;;;;;;11.13;10.02;;;;;;;23.13;100.00;30257.34;6213570;23;20473;-64
2023/07/03 00:32:36;;;;;;;11.13;10.02;;;;;;;23.14;100.00;29597.38;6213614;23;20244;-64
2023/07/03 00:35:04;;;;;;;11.93;10.88;;;;;;;23.14;100.00;28505.38;6213663;23;20172;-64
2023/07/03 00:37:31;;;;;;;11.65;10.93;;;;;;;23.22;100.00;28769.28;6213952;23;20168;-63
2023/07/03 00:39:58;;;;;;;12.32;11.63;;;;;;;22.90;100.00;29075.97;6215590;23;20164;-64
2023/07/03 00:42:25;;;;;;;11.90;11.20;;;;;;;23.20;100.00;27162.72;6215852;23;20157;-65
2023/07/03 00:44:52;;;;;;;13.30;12.20;;;;;;;23.14;100.00;26558.91;6215817;23;20154;-64
2023/07/03 00:47:20;;;;;;;12.93;12.13;;;;;;;23.02;100.00;26388.78;6215411;23;20256;-63
2023/07/03 00:49:49;;;;;;;13.07;11.93;;;;;;;23.12;100.00;27772.53;6215425;23;20162;-65
2023/07/03 00:52:16;;;;;;;13.40;12.10;;;;;;;22.93;100.00;26443.47;6215935;23;20500;-64
2023/07/03 00:54:43;;;;;;;27.05;19.75;;;;;;;23.20;100.00;26962.41;6215356;23;20169;-64
2023/07/03 00:57:13;;;;;;;31.98;21.10;;;;;;;23.16;100.00;27047.50;6215300;23;20201;-64
2023/07/03 00:59:40;;;;;;;31.88;24.20;;;;;;;23.26;100.00;27673.78;6215640;23;20604;-63
2023/07/03 01:02:13;;;;;;;35.92;26.00;;;;;;;23.31;100.00;27100.88;6215748;23;20162;-63
2023/07/03 01:04:45;;;;;;;39.78;27.23;;;;;;;23.22;100.00;27279.03;6215687;23;20540;-63
2023/07/03 01:07:16;;;;;;;38.35;27.80;;;;;;;23.32;100.00;28568.41;6215201;23;20189;-64
2023/07/03 01:09:47;;;;;;;40.40;28.10;;;;;;;23.14;100.00;28631.53;6215830;23;20158;-64
2023/07/03 01:12:16;;;;;;;35.15;26.25;;;;;;;22.78;100.00;27673.22;6215655;23;20168;-64
2023/07/03 01:14:45;;;;;;;39.88;26.50;;;;;;;23.16;100.00;27047.75;6215733;23;20241;-63
2023/07/03 01:17:14;;;;;;;33.15;26.13;;;;;;;22.90;100.00;25500.28;6215640;23;20229;-63
2023/07/03 01:19:49;;;;;;;35.65;25.25;;;;;;;23.09;100.00;25339.56;6215157;23;20165;-64
2023/07/03 01:22:23;;;;;;;35.17;25.05;;;;;;;23.06;100.00;25019.97;6215122;23;20162;-64
2023/07/03 01:24:55;;;;;;;35.88;26.05;;;;;;;23.10;100.00;26043.53;6215548;23;20659;-64
2023/07/03 01:27:25;;;;;;;41.40;25.02;;;;;;;22.97;100.00;25495.63;6215011;23;20213;-64
2023/07/03 01:29:54;;;;;;;38.67;24.73;;;;;;;22.98;100.00;25316.47;6215477;23;20153;-66
2023/07/03 01:32:23;;;;;;;36.55;24.27;;;;;;;22.96;100.00;25970.13;6215650;23;20569;-65
2023/07/03 01:34:53;;;;;;;38.33;24.33;;;;;;;22.73;100.00;25105.25;6215107;23;20166;-63
2023/07/03 01:37:24;;;;;;;39.70;26.55;;;;;;;22.85;100.00;24782.22;6215173;23;20160;-64
2023/07/03 01:39:52;;;;;;;39.20;27.05;;;;;;;22.79;100.00;24235.81;6215000;23;20249;-64
2023/07/03 01:42:21;;;;;;;44.40;26.40;;;;;;;22.85;100.00;24923.31;6214879;23;20162;-64
2023/07/03 01:44:48;;;;;;;33.63;25.27;;;;;;;22.58;100.00;23875.22;6214915;23;20164;-64
2023/07/03 01:47:15;;;;;;;36.15;22.40;;;;;;;22.81;100.00;25267.75;6214873;23;20264;-64
2023/07/03 01:49:44;;;;;;;33.47;21.42;;;;;;;22.79;100.00;26505.97;6214278;23;20162;-63
2023/07/03 01:52:19;;;;;;;26.02;21.20;;;;;;;22.76;100.00;25442.41;6215032;23;20154;-64
2023/07/03 01:54:56;;;;;;;25.02;20.98;;;;;;;22.77;100.00;25878.97;6214817;23;20157;-64
2023/07/03 01:57:32;;;;;;;26.05;20.20;;;;;;;22.55;100.00;25420.00;6214961;23;20209;-63
2023/07/03 02:00:03;;;;;;;26.80;19.55;;;;;;;22.71;100.00;25155.38;6215175;23;20236;-64
2023/07/03 02:02:31;;;;;;;23.10;20.20;;;;;;;22.65;100.00;24242.34;6215212;23;20217;-65
2023/07/03 02:05:03;;;;;;;27.05;19.77;;;;;;;22.50;100.00;22900.53;6214815;23;20157;-64
2023/07/03 02:07:33;;;;;;;20.85;18.48;;;;;;;22.66;100.00;23484.03;6214466;23;20188;-64
2023/07/03 02:10:02;;;;;;;29.05;20.02;;;;;;;22.66;100.00;23627.78;6214892;23;20189;-64
2023/07/03 02:12:29;;;;;;;30.83;19.65;;;;;;;22.61;100.00;24097.25;6215202;23;20158;-64
2023/07/03 02:15:01;;;;;;;31.55;20.65;;;;;;;22.68;100.00;25264.50;6214502;23;20639;-63
2023/07/03 02:17:27;;;;;;;29.02;21.65;;;;;;;22.83;100.00;26151.22;6214792;23;20249;-64
2023/07/03 02:19:55;;;;;;;29.95;20.67;;;;;;;22.76;100.00;24868.09;6215153;23;20192;-64
2023/07/03 02:22:22;;;;;;;38.22;23.13;;;;;;;22.69;100.00;24957.00;6215061;23;20498;-64
2023/07/03 02:24:48;;;;;;;32.97;22.95;;;;;;;22.74;100.00;24928.75;6215056;23;20484;-64
2023/07/03 02:27:19;;;;;;;33.20;23.48;;;;;;;22.78;100.00;25025.25;6214530;23;20181;-66
2023/07/03 02:29:46;;;;;;;36.42;21.80;;;;;;;22.85;100.00;24915.63;6214785;23;20619;-64
2023/07/03 02:32:13;;;;;;;25.60;20.70;;;;;;;22.88;100.00;24868.03;6214947;23;20158;-64
2023/07/03 02:34:40;;;;;;;23.80;20.80;;;;;;;22.74;100.00;25067.00;6214543;23;20213;-63
2023/07/03 02:37:09;;;;;;;28.38;19.65;;;;;;;22.85;100.00;24692.22;6214732;23;20492;-64
2023/07/03 02:39:36;;;;;;;32.65;19.38;;;;;;;22.77;100.00;21735.78;6214772;23;20615;-63
2023/07/03 02:42:03;;;;;;;26.70;17.88;;;;;;;22.73;100.00;22777.09;6214843;23;20157;-64
2023/07/03 02:44:35;;;;;;;32.67;19.30;;;;;;;22.85;100.00;23707.69;6214789;23;20168;-63
2023/07/03 02:47:02;;;;;;;21.30;18.27;;;;;;;;;;6215171;23;20181;-65
2023/07/03 02:49:29;;;;;;;30.08;17.42;;;;;;;22.90;100.00;24694.50;6214517;23;20193;-64
2023/07/03 02:51:56;;;;;;;20.67;17.45;;;;;;;22.93;100.00;23711.22;6214329;23;20162;-64
2023/07/03 02:54:23;;;;;;;21.75;18.27;;;;;;;22.98;100.00;22728.72;6214574;23;20673;-64
2023/07/03 02:56:50;;;;;;;23.83;16.70;;;;;;;22.99;100.00;23713.84;6214086;23;20223;-65
2023/07/03 02:59:16;;;;;;;22.75;16.83;;;;;;;22.87;100.00;22395.97;6214233;23;20158;-63
2023/07/03 03:01:45;;;;;;;34.35;18.50;;;;;;;22.86;100.00;23379.72;6214551;23;20161;-64
2023/07/03 03:04:12;;;;;;;26.48;17.20;;;;;;;22.84;100.00;23050.91;6214588;23;20235;-65
2023/07/03 03:06:39;;;;;;;26.67;17.10;;;;;;;22.85;100.00;22067.06;6214056;23;20181;-64
2023/07/03 03:09:07;;;;;;;27.80;20.20;;;;;;;22.76;100.00;23375.81;6214506;23;20233;-64
2023/07/03 03:11:33;;;;;;;20.42;17.10;;;;;;;22.72;100.00;19111.22;6214483;23;20624;-64
2023/07/03 03:14:00;;;;;;;19.13;17.02;;;;;;;22.77;100.00;17147.53;6214023;23;20157;-63
2023/07/03 03:16:27;;;;;;;28.45;16.45;;;;;;;22.74;100.00;16491.41;6214489;23;20158;-64
2023/07/03 03:18:56;;;;;;;17.80;16.08;;;;;;;22.80;100.00;18607.22;6214079;23;20232;-64
2023/07/03 03:21:23;;;;;;;20.67;16.50;;;;;;;22.88;100.00;21740.25;6213992;23;20166;-64
2023/07/03 03:23:50;;;;;;;23.92;17.00;;;;;;;22.88;100.00;23052.63;6214387;23;20157;-63
2023/07/03 03:26:16;;;;;;;21.98;16.25;;;;;;;22.96;100.00;21743.31;6214203;23;20177;-64
2023/07/03 03:28:43;;;;;;;22.50;15.90;;;;;;;22.96;100.00;22727.88;6214024;23;20157;-64
2023/07/03 03:31:10;;;;;;;17.83;16.15;;;;;;;23.16;100.00;27006.66;6213908;23;20168;-63
2023/07/03 03:33:37;;;;;;;16.90;15.18;;;;;;;23.20;100.00;28652.38;6214298;23;20597;-64
2023/07/03 03:36:06;;;;;;;27.55;16.92;;;;;;;23.22;100.00;30956.69;6214530;23;20584;-64
2023/07/03 03:38:32;;;;;;;20.63;16.63;;;;;;;23.19;100.00;35894.88;6214261;23;20165;-64
2023/07/03 03:41:01;;;;;;;19.30;16.55;;;;;;;23.18;100.00;39521.91;6214542;23;20157;-64
2023/07/03 03:43:28;;;;;;;19.75;15.95;;;;;;;23.16;100.00;41170.59;6213967;23;20165;-63
2023/07/03 03:45:56;;;;;;;22.77;16.50;;;;;;;23.11;100.00;39517.06;6213778;23;20158;-63
2023/07/03 03:48:24;;;;;;;17.42;15.75;;;;;;;23.20;100.00;41503.22;6213788;23;20162;-64
2023/07/03 03:50:51;;;;;;;17.27;15.40;;;;;;;23.31;100.00;42501.63;6213823;23;20158;-64
2023/07/03 03:53:19;;;;;;;16.65;14.95;;;;;;;23.24;100.00;39855.75;6213724;23;20164;-64
2023/07/03 03:55:49;;;;;;;15.10;14.07;;;;;;;23.41;100.00;42509.06;6214251;23;20185;-64
2023/07/03 03:58:16;;;;;;;15.77;14.77;;;;;;;23.33;100.00;46799.81;6213710;23;20201;-64
2023/07/03 04:00:43;;;;;;;16.30;14.98;;;;;;;23.42;100.00;48461.44;6214137;23;20241;-64
2023/07/03 04:03:10;;;;;;;16.35;14.63;;;;;;;23.39;100.00;46143.25;6213585;23;20161;-64
2023/07/03 04:05:37;;;;;;;15.77;14.30;;;;;;;23.55;100.00;47148.63;6213785;23;20158;-63
2023/07/03 04:08:04;;;;;;;15.70;14.18;;;;;;;23.55;100.00;49796.69;6213631;23;20184;-65
2023/07/03 04:10:33;;;;;;;16.13;14.50;;;;;;;23.73;100.00;54784.41;6213741;23;20164;-64
2023/07/03 04:12:59;;;;;;;15.27;13.70;;;;;;;23.79;100.00;60434.63;6213759;23;20161;-63
2023/07/03 04:15:26;;;;;;;14.50;13.50;;;;;;;23.80;100.00;66422.53;6213576;23;20169;-64
2023/07/03 04:17:53;;;;;;;14.02;12.75;;;;;;;24.06;100.00;69784.06;6213905;23;20580;-64
2023/07/03 04:20:20;;;;;;;16.58;13.32;;;;;;;24.09;100.00;84153.06;6213700;23;20166;-64
2023/07/03 04:22:47;;;;;;;16.92;13.10;;;;;;;24.20;100.00;100949.66;6213906;23;20616;-65
2023/07/03 04:25:14;;;;;;;13.88;12.30;;;;;;;24.38;100.00;112779.84;6213783;23;20157;-65
2023/07/03 04:27:42;;;;;;;14.95;13.60;;;;;;;24.48;100.00;132443.38;6213561;23;20188;-63
2023/07/03 04:30:10;;;;;;;14.15;12.52;;;;;;;24.95;100.00;151130.84;6214017;23;20168;-64
2023/07/03 04:32:38;;;;;;;13.25;12.05;;;;;;;24.95;100.00;151647.28;6213572;23;20195;-64
2023/07/03 04:35:06;;;;;;;12.45;11.65;;;;;;;25.11;100.00;152353.16;6213680;23;20486;-65
2023/07/03 04:37:34;;;;;;;13.25;11.13;;;;;;;25.34;100.00;152413.19;6213877;23;20497;-64
2023/07/03 04:40:01;;;;;;;10.75;10.02;;;;;;;25.51;100.00;152455.34;6213617;23;20154;-64
2023/07/03 04:42:31;;;;;;;12.85;11.60;;;;;;;25.88;100.00;152548.72;6214022;23;20157;-64
2023/07/03 04:45:01;;;;;;;11.73;10.63;;;;;;;26.01;100.00;152581.97;6213514;23;20228;-65
2023/07/03 04:47:28;;;;;;;11.57;10.15;;;;;;;26.20;100.00;152630.56;6213577;23;20213;-64
2023/07/03 04:49:58;;;;;;;10.57;9.90;;;;;;;26.50;100.00;152706.00;6213744;23;20500;-65
2023/07/03 04:52:27;;;;;;;11.55;10.50;;;;;;;26.79;100.00;152780.19;6213386;23;20164;-64
2023/07/03 04:54:54;;;;;;;11.68;10.45;;;;;;;27.15;100.00;152869.78;6213381;23;20240;-64
2023/07/03 04:57:26;;;;;;;10.10;9.27;;;;;;;27.35;100.00;152920.94;6213474;23;20208;-65
2023/07/03 04:59:54;;;;;;;10.88;10.02;;;;;;;27.46;100.00;152947.78;6213889;23;20164;-64
2023/07/03 05:02:24;;;;;;;12.60;9.95;;;;;;;27.50;100.00;152959.34;6213368;23;20158;-65
2023/07/03 05:04:51;;;;;;;10.48;9.73;;;;;;;27.58;100.00;152978.56;6187035;23;20161;-65
2023/07/03 05:07:19;;;;;;;10.43;9.70;;;;;;;27.77;100.00;153025.91;6213715;23;20182;-64
2023/07/03 05:09:45;;;;;;;9.63;8.98;;;;;;;28.03;100.00;153092.47;6213330;23;20165;-65
2023/07/03 05:12:12;;;;;;;10.77;10.10;;;;;;;28.26;100.00;153150.13;6213602;23;20468;-64
2023/07/03 05:14:39;;;;;;;9.43;8.77;;;;;;;28.22;100.00;153141.13;6213608;23;20237;-65
2023/07/03 05:17:06;;;;;;;10.05;9.30;;;;;;;28.33;100.00;153168.03;6213569;23;20165;-64
2023/07/03 05:19:35;;;;;;;9.48;9.00;;;;;;;28.88;100.00;153308.91;6213271;23;20158;-65
2023/07/03 05:22:01;;;;;;;10.95;10.02;;;;;;;29.17;100.00;153380.63;6213847;23;20169;-65
2023/07/03 05:24:28;;;;;;;10.48;9.73;;;;;;;29.17;100.00;153380.63;6214616;23;20162;-64
2023/07/03 05:26:55;;;;;;;11.93;10.80;;;;;;;29.37;100.00;153433.19;6215752;23;20264;-65
2023/07/03 05:29:22;;;;;;;10.68;10.15;;;;;;;29.56;100.00;153480.59;6215508;23;20161;-65
2023/07/03 05:31:49;;;;;;;11.10;10.38;;;;;;;29.80;100.00;153540.78;6215358;23;20158;-65
2023/07/03 05:34:16;;;;;;;10.27;9.68;;;;;;;30.14;100.00;153626.69;6215712;23;20165;-64
2023/07/03 05:36:44;;;;;;;10.10;9.63;;;;;;;30.08;100.00;153612.63;6215471;23;20184;-63
2023/07/03 05:39:11;;;;;;;11.13;10.27;;;;;;;30.29;100.00;153665.19;6215215;23;20245;-67
2023/07/03 05:41:38;;;;;;;10.05;9.45;;;;;;;30.49;100.00;153716.47;6190428;23;20473;-68
2023/07/03 05:44:05;;;;;;;11.82;10.82;;;;;;;30.63;100.00;153752.41;6216902;23;20485;-68
2023/07/03 05:46:32;;;;;;;9.55;8.95;;;;;;;30.89;100.00;153817.78;6217400;23;20158;-67
2023/07/03 05:48:59;;;;;;;9.45;9.05;;;;;;;30.81;100.00;153797.22;6218404;23;20703;-67
2023/07/03 05:51:26;;;;;;;10.70;9.80;;;;;;;30.68;100.00;153765.16;6217185;23;20207;-67
2023/07/03 05:53:54;;;;;;;10.32;9.50;;;;;;;30.30;100.00;153669.00;6216718;23;20164;-67
2023/07/03 05:56:21;;;;;;;10.32;9.73;;;;;;;30.82;100.00;153801.09;6216126;23;20234;-68
2023/07/03 05:58:48;;;;;;;11.27;8.95;;;;;;;31.13;100.00;153878.06;6215943;23;20197;-68
2023/07/03 06:01:15;;;;;;;12.63;11.65;;;;;;;30.80;100.00;153794.69;6216668;23;20158;-67
2023/07/03 06:03:43;;;;;;;10.27;9.77;;;;;;;31.15;100.00;153884.47;6215710;23;20158;-68
2023/07/03 06:06:10;;;;;;;10.70;10.10;;;;;;;31.27;100.00;153915.22;6215300;23;20193;-67
2023/07/03 06:08:37;;;;;;;9.85;9.02;;;;;;;31.79;100.00;154044.81;6216196;23;20181;-67
2023/07/03 06:11:05;;;;;;;10.27;9.60;;;;;;;32.43;100.00;154207.81;6215385;23;20154;-66
2023/07/03 06:13:32;;;;;;;8.38;7.78;;;;;;;32.85;100.00;154315.69;6217313;23;20165;-66
2023/07/03 06:15:59;;;;;;;10.77;10.23;;;;;;;33.04;100.00;154364.50;6217352;23;20162;-67
2023/07/03 06:18:26;;;;;;;9.90;9.43;;;;;;;33.08;100.00;154374.75;6215359;23;20164;-68
2023/07/03 06:20:52;;;;;;;10.32;9.43;;;;;;;33.12;100.00;154382.44;6215248;23;20216;-67
2023/07/03 06:23:20;;;;;;;9.88;9.48;;;;;;;33.13;100.00;154385.03;6215003;23;20157;-68
2023/07/03 06:25:47;;;;;;;11.15;9.40;;;;;;;32.99;100.00;154351.66;6215650;23;20593;-68
2023/07/03 06:28:16;;;;;;;10.65;10.05;;;;;;;32.91;100.00;154329.81;6214790;23;20567;-66
2023/07/03 06:30:48;;;;;;;10.07;9.68;;;;;;;33.44;100.00;154464.69;6216044;23;20492;-67
2023/07/03 06:33:14;;;;;;;10.45;9.73;;;;;;;33.57;100.00;154496.78;6214701;23;20165;-63
2023/07/03 06:35:42;;;;;;;11.52;9.65;;;;;;;33.66;100.00;154521.22;6214305;23;20212;-65
2023/07/03 06:38:09;;;;;;;10.13;9.43;;;;;;;33.71;100.00;154534.06;6215437;23;20154;-62
2023/07/03 06:40:36;;;;;;;9.95;9.50;;;;;;;33.77;100.00;154548.19;6214721;23;20240;-62
2023/07/03 06:43:02;;;;;;;10.50;10.05;;;;;;;34.01;96.45;154608.53;6214556;23;20241;-61
2023/07/03 06:45:31;;;;;;;8.60;7.95;;;;;;;33.72;97.86;154536.63;6213894;23;20157;-59
2023/07/03 06:47:58;;;;;;;9.70;9.23;;;;;;;33.51;98.53;154482.66;6214333;23;20177;-67
2023/07/03 06:50:24;;;;;;;12.07;11.27;;;;;;;33.18;98.53;154397.91;6215023;23;20200;-67
2023/07/03 06:52:51;;;;;;;10.82;9.35;;;;;;;33.35;99.73;154441.56;6216248;23;20168;-69
2023/07/03 06:55:18;;;;;;;9.52;8.93;;;;;;;33.24;99.65;154413.31;6188982;23;20157;-67
2023/07/03 06:57:48;;;;;;;10.07;9.70;;;;;;;33.00;100.00;154354.22;6215500;23;20540;-66
2023/07/03 07:00:16;;;;;;;9.30;8.90;;;;;;;32.95;100.00;154340.09;6215542;23;20165;-67
2023/07/03 07:02:44;;;;;;;9.18;8.88;;;;;;;33.06;100.00;154368.31;6215945;23;20158;-67
2023/07/03 07:05:12;;;;;;;10.65;10.05;;;;;;;32.57;100.00;154243.78;6216337;23;20165;-67
2023/07/03 07:07:38;;;;;;;9.70;9.13;;;;;;;32.61;100.00;154255.38;6216387;23;20177;-66
2023/07/03 07:10:06;;;;;;;12.30;11.23;;;;;;;32.56;100.00;154241.19;6216042;23;20187;-67
2023/07/03 07:12:33;;;;;;;12.25;11.10;;;;;;;32.26;100.00;154164.19;6216012;23;20193;-68
2023/07/03 07:15:00;;;;;;;10.45;10.05;;;;;;;32.34;100.00;154186.00;6217498;23;20161;-68
2023/07/03 07:17:27;;;;;;;11.00;10.45;;;;;;;31.90;100.00;154073.09;6215835;23;20154;-67
2023/07/03 07:19:55;;;;;;;11.25;10.07;;;;;;;31.76;100.00;154037.16;6216767;23;20500;-65
2023/07/03 07:22:22;;;;;;;11.50;10.77;;;;;;;31.40;100.00;153947.34;6213915;23;20177;-65
2023/07/03 07:24:49;;;;;;;9.27;8.52;;;;;;;31.66;100.00;154012.75;6214432;23;20181;-65
2023/07/03 07:27:16;;;;;;;11.07;10.27;;;;;;;31.62;100.00;154002.50;6213769;23;20169;-64
2023/07/03 07:29:43;;;;;;;10.90;10.00;;;;;;;31.76;100.00;154038.44;6214238;23;20593;-64
2023/07/03 07:32:10;;;;;;;13.80;11.30;;;;;;;31.98;100.00;154094.91;6213527;23;20185;-64
2023/07/03 07:34:36;;;;;;;11.23;10.27;;;;;;;31.92;100.00;154079.47;6213648;23;20153;-64
2023/07/03 07:37:05;;;;;;;16.98;11.23;;;;;;;31.80;100.00;154048.69;6213849;23;20162;-64
2023/07/03 07:39:32;;;;;;;13.88;11.93;;;;;;;31.86;100.00;154064.13;6213874;23;20153;-65
2023/07/03 07:41:59;;;;;;;12.65;11.32;;;;;;;31.38;100.00;153942.19;6214066;23;20165;-64
2023/07/03 07:44:26;;;;;;;17.05;12.05;;;;;;;31.33;100.00;153928.06;6213831;23;20207;-64
2023/07/03 07:46:53;;;;;;;12.23;11.45;;;;;;;31.34;100.00;153930.66;6213024;23;20162;-63
2023/07/03 07:49:20;;;;;;;13.68;12.55;;;;;;;31.04;100.00;153856.28;6213291;23;20189;-63
2023/07/03 07:51:48;;;;;;;15.70;12.80;;;;;;;31.10;100.00;153871.69;6213773;23;20158;-64
2023/07/03 07:54:16;;;;;;;12.95;11.80;;;;;;;30.99;100.00;153842.09;6213780;23;20573;-63
2023/07/03 07:56:43;;;;;;;13.63;11.77;;;;;;;31.10;100.00;153870.41;6213583;23;20631;-63
2023/07/03 07:59:10;;;;;;;12.60;11.18;;;;;;;31.16;100.00;153887.03;6211431;23;20197;-64
2023/07/03 08:01:37;;;;;;;13.40;11.85;;;;;;;31.35;100.00;153933.22;6213339;23;20161;-64
2023/07/03 08:04:05;;;;;;;11.07;10.27;;;;;;;31.53;100.00;153979.41;6213484;23;20161;-63
2023/07/03 08:06:32;;;;;;;12.65;11.63;;;;;;;31.41;100.00;153948.59;6213292;23;20394;-65
2023/07/03 08:08:58;;;;;;;12.23;11.20;;;;;;;31.22;100.00;153902.44;6213612;23;20251;-64
2023/07/03 08:11:28;;;;;;;12.95;11.65;;;;;;;31.08;100.00;153866.53;6213567;23;20614;-64
2023/07/03 08:13:55;;;;;;;12.65;11.40;;;;;;;30.76;100.00;153784.44;6214011;23;20162;-63
2023/07/03 08:16:22;;;;;;;19.90;12.48;;;;;;;30.93;100.00;153828.03;6213384;23;20294;-64
2023/07/03 08:18:49;;;;;;;13.05;11.55;;;;;;;30.81;100.00;153798.50;6213234;23;20154;-65
2023/07/03 08:21:16;;;;;;;13.32;11.65;;;;;;;30.35;100.00;153680.53;6213221;23;20164;-65
2023/07/03 08:23:43;;;;;;;16.27;11.43;;;;;;;30.05;100.00;153604.91;6213273;23;20180;-64
2023/07/03 08:26:18;;;;;;;12.68;11.48;;;;;;;29.26;100.00;153404.97;6212898;23;20179;-64
2023/07/03 08:28:46;;;;;;;12.15;11.23;;;;;;;29.25;100.00;153402.41;6213712;23;20181;-64
2023/07/03 08:31:17;;;;;;;13.18;10.90;;;;;;;29.39;100.00;153438.31;6213144;23;20165;-64
2023/07/03 08:33:44;;;;;;;14.55;12.07;;;;;;;29.26;100.00;153404.97;6213908;23;20157;-64
2023/07/03 08:36:10;;;;;;;12.13;11.15;;;;;;;28.69;100.00;153258.91;6212948;23;20168;-62
2023/07/03 08:38:40;;;;;;;19.00;14.20;;;;;;;27.47;100.00;152951.69;6213619;23;20153;-64
2023/07/03 08:41:13;;;;;;;16.58;14.80;;;;;;;26.59;100.00;38098.66;6212856;23;20162;-64
2023/07/03 08:43:44;;;;;;;19.50;17.00;;;;;;;26.42;100.00;3460.94;6213483;23;20173;-63
2023/07/03 08:46:18;;;;;;;17.52;15.05;;;;;;;26.03;100.00;17913.72;6212947;23;20166;-63
2023/07/03 08:48:47;;;;;;;16.48;14.80;;;;;;;25.59;100.00;13294.88;6213595;23;20187;-64
2023/07/03 08:51:18;;;;;;;17.52;15.82;;;;;;;25.81;100.00;-7996.75;6213155;23;20162;-65
2023/07/03 08:53:53;;;;;;;17.40;15.55;;;;;;;25.84;100.00;-2767.00;6213704;23;20162;-64
2023/07/03 08:56:22;;;;;;;16.63;14.88;;;;;;;26.02;100.00;-5383.50;6212884;23;20169;-64
2023/07/03 08:58:52;;;;;;;16.65;14.43;;;;;;;26.25;100.00;508.63;6212084;23;20280;-67
2023/07/03 09:01:27;;;;;;;15.40;13.82;;;;;;;27.06;100.00;13663.84;6214896;23;20240;-64
2023/07/03 09:04:15;;;;;;;13.73;12.63;;;;;;;27.29;100.00;42130.88;6215219;23;20608;-64
2023/07/03 09:06:48;;;;;;;12.38;11.60;;;;;;;27.69;100.00;79950.19;6215448;23;20165;-63
2023/07/03 09:09:22;;;;;;;11.88;11.07;;;;;;;27.91;100.00;141921.66;6215060;23;20267;-62
2023/07/03 09:11:56;;;;;;;12.45;11.20;;;;;;;28.10;100.00;133925.34;6214904;23;20161;-63
2023/07/03 09:14:28;;;;;;;10.88;10.15;;;;;;;28.22;100.00;153139.88;6214951;23;20496;-65
2023/07/03 09:16:57;;;;;;;8.48;7.97;;;;;;;28.45;100.00;153200.03;6214814;23;20169;-63
2023/07/03 09:19:26;;;;;;;9.90;9.20;;;;;;;28.45;100.00;153200.03;6215168;23;20164;-64
2023/07/03 09:21:57;;;;;;;9.75;9.25;;;;;;;28.41;100.00;153189.78;6215431;23;20158;-68
2023/07/03 09:24:30;;;;;;;10.70;10.07;;;;;;;28.44;100.00;153197.47;6215086;23;20161;-64
2023/07/03 09:27:05;;;;;;;10.75;10.00;;;;;;;28.26;100.00;153150.13;6215562;23;20231;-64
2023/07/03 09:29:35;;;;;;;11.15;10.25;;;;;;;27.62;100.00;152988.81;6215352;23;20580;-64
2023/07/03 09:32:03;;;;;;;12.10;10.88;;;;;;;27.02;100.00;106838.50;6215871;23;20158;-62
2023/07/03 09:35:03;;;;;;;11.75;11.05;;;;;;;26.28;100.00;30133.22;6216198;23;20158;-66
2023/07/03 09:37:29;;;;;;;12.48;11.32;;;;;;;25.92;100.00;16593.41;6215581;23;20166;-63
2023/07/03 09:39:56;;;;;;;10.60;9.70;;;;;;;25.44;100.00;23491.09;6215196;23;20157;-61
2023/07/03 09:42:25;;;;;;;10.50;9.63;;;;;;;24.77;100.00;29722.53;6214869;23;20519;-63
2023/07/03 09:44:52;;;;;;;11.90;9.85;;;;;;;24.32;100.00;1803.00;6214892;23;20157;-63
2023/07/03 09:47:26;;;;;;;10.70;9.80;;;;;;;24.50;100.00;2458.41;6214738;23;20166;-64
2023/07/03 09:49:54;;;;;;;12.43;11.20;;;;;;;24.85;100.00;4097.81;6214559;23;20200;-60
2023/07/03 09:52:23;;;;;;;11.52;10.82;;;;;;;25.05;100.00;6392.88;6215051;23;20184;-60
2023/07/03 09:54:50;;;;;;;11.02;10.20;;;;;;;25.52;100.00;8696.38;6214940;23;20161;-60
2023/07/03 09:57:24;;;;;;;12.00;10.85;;;;;;;26.40;100.00;9042.19;6214613;23;20331;-59
2023/07/03 09:59:52;;;;;;;10.77;10.00;;;;;;;27.13;100.00;14324.88;6214504;23;20165;-60
2023/07/03 10:02:23;;;;;;;8.88;8.43;;;;;;;27.34;100.00;151288.78;6214449;23;20216;-60
2023/07/03 10:04:50;;;;;;;8.77;8.45;;;;;;;27.19;100.00;152880.00;6214157;23;20157;-60
2023/07/03 10:07:18;;;;;;;9.68;8.95;;;;;;;27.47;100.00;152950.34;6214941;23;20161;-64
2023/07/03 10:09:46;;;;;;;9.15;8.55;;;;;;;27.47;100.00;152951.69;6214342;23;20695;-61
2023/07/03 10:12:23;;;;;;;9.93;9.15;;;;;;;27.56;100.00;152974.72;6214405;23;20516;-60
2023/07/03 10:14:55;;;;;;;9.50;8.90;;;;;;;27.65;100.00;152997.75;6214693;23;20244;-63
2023/07/03 10:17:27;;;;;;;9.52;9.10;;;;;;;28.02;100.00;141338.97;6214589;23;20273;-59
2023/07/03 10:20:01;;;;;;;10.20;9.43;;;;;;;28.34;100.00;153171.88;6214982;23;20154;-59
2023/07/03 10:22:28;;;;;;;8.30;8.00;;;;;;;28.78;100.00;153283.28;6214165;23;20158;-59
2023/07/03 10:25:01;;;;;;;9.68;9.07;;;;;;;29.12;100.00;153369.09;6214754;23;20584;-60
2023/07/03 10:27:30;;;;;;;15.88;10.90;;;;;;;29.06;100.00;153353.75;6214210;23;20154;-60
2023/07/03 10:30:00;;;;;;;12.23;10.77;;;;;;;28.86;100.00;153302.50;6214485;23;20553;-59
2023/07/03 10:32:33;;;;;;;12.05;11.00;;;;;;;28.67;100.00;153253.81;6214281;23;20168;-60
2023/07/03 10:35:04;;;;;;;13.00;10.30;;;;;;;28.67;100.00;153255.09;6214195;23;20157;-59
2023/07/03 10:37:39;;;;;;;13.02;11.40;;;;;;;28.71;100.00;153265.38;6214311;23;20237;-59
2023/07/03 10:40:15;;;;;;;16.33;11.85;;;;;;;28.67;100.00;153253.81;6213735;23;20249;-59
2023/07/03 10:42:46;;;;;;;10.25;9.70;;;;;;;28.64;100.00;153246.13;6213786;23;20164;-60
2023/07/03 10:45:15;;;;;;;6.97;6.68;;;;;;;28.46;100.00;153201.31;6213680;23;20268;-60
2023/07/03 10:47:51;;;;;;;7.03;6.57;;;;;;;28.65;100.00;153248.66;6213708;23;20164;-60
2023/07/03 10:50:20;;;;;;;7.22;6.82;;;;;;;28.96;100.00;153329.41;6213709;23;20181;-59
2023/07/03 10:52:54;;;;;;;14.85;7.00;;;;;;;28.48;100.00;153206.41;6213643;23;20162;-60
2023/07/03 10:55:28;;;;;;;7.80;7.00;;;;;;;28.17;100.00;153128.34;6214043;23;20193;-60
2023/07/03 10:58:03;;;;;;;7.53;7.00;;;;;;;28.05;100.00;153097.59;6213693;23;20208;-60
2023/07/03 11:00:35;;;;;;;8.30;7.60;;;;;;;28.27;100.00;153153.94;6213963;23;20159;-60
2023/07/03 11:03:13;;;;;;;6.82;6.22;;;;;;;28.32;100.00;153165.47;6213935;23;20493;-60
2023/07/03 11:05:44;;;;;;;8.30;7.88;;;;;;;28.18;100.00;153129.66;6213508;23;20211;-60
2023/07/03 11:08:21;;;;;;;8.38;7.18;;;;;;;28.22;100.00;153141.13;6213613;23;20260;-60
2023/07/03 11:10:53;;;;;;;7.90;7.40;;;;;;;28.21;100.00;153137.31;6213778;23;20608;-60
2023/07/03 11:13:28;;;;;;;7.70;6.85;;;;;;;28.30;100.00;153160.34;6213825;23;20161;-60
2023/07/03 11:16:06;;;;;;;7.85;7.28;;;;;;;28.06;100.00;153101.41;6213937;23;20157;-60